sensor_id;sensor_type;location;lat;lon;timestamp;pressure;altitude;pressure_sealevel;temperature;humidity
10464;BME280;5279;42.048;24.638;2023-07-20T00:00:01;97080.16;;;26.94;47.35
10464;BME280;5279;42.048;24.638;2023-07-20T00:02:29;97085.09;;;27.02;47.05
10464;BME280;5279;42.048;24.638;2023-07-20T00:04:57;97089.47;;;27.03;47.29
10464;BME280;5279;42.048;24.638;2023-07-20T00:07:24;97100.94;;;27.10;47.73
10464;BME280;5279;42.048;24.638;2023-07-20T00:09:51;97087.88;;;27.12;47.96
10464;BME280;5279;42.048;24.638;2023-07-20T00:12:17;97086.31;;;27.17;47.80
10464;BME280;5279;42.048;24.638;2023-07-20T00:14:44;97076.50;;;27.15;48.26
10464;BME280;5279;42.048;24.638;2023-07-20T00:17:11;97080.84;;;27.17;48.31
10464;BME280;5279;42.048;24.638;2023-07-20T00:19:47;97065.34;;;27.17;48.44
10464;BME280;5279;42.048;24.638;2023-07-20T00:22:15;97065.09;;;27.19;48.46
10464;BME280;5279;42.048;24.638;2023-07-20T00:24:42;97058.03;;;27.18;48.71
10464;BME280;5279;42.048;24.638;2023-07-20T00:27:09;97045.50;;;27.22;48.52
10464;BME280;5279;42.048;24.638;2023-07-20T00:29:36;97042.50;;;27.18;48.68
10464;BME280;5279;42.048;24.638;2023-07-20T00:32:03;97045.50;;;27.17;48.51
10464;BME280;5279;42.048;24.638;2023-07-20T00:34:31;97045.50;;;27.17;48.76
10464;BME280;5279;42.048;24.638;2023-07-20T00:36:58;97034.63;;;27.17;48.82
10464;BME280;5279;42.048;24.638;2023-07-20T00:39:26;97026.38;;;27.06;48.90
10464;BME280;5279;42.048;24.638;2023-07-20T00:41:53;97020.69;;;27.08;49.14
10464;BME280;5279;42.048;24.638;2023-07-20T00:44:20;97003.50;;;26.97;49.50
10464;BME280;5279;42.048;24.638;2023-07-20T00:46:47;96983.91;;;27.00;49.41
10464;BME280;5279;42.048;24.638;2023-07-20T00:49:14;96976.59;;;27.06;49.35
10464;BME280;5279;42.048;24.638;2023-07-20T00:51:41;96988.84;;;27.03;49.60
10464;BME280;5279;42.048;24.638;2023-07-20T00:54:08;96986.09;;;26.98;49.74
10464;BME280;5279;42.048;24.638;2023-07-20T00:56:36;96990.16;;;26.96;50.05
10464;BME280;5279;42.048;24.638;2023-07-20T00:59:03;96977.13;;;26.98;49.90
10464;BME280;5279;42.048;24.638;2023-07-20T01:01:30;96978.75;;;26.99;49.91
10464;BME280;5279;42.048;24.638;2023-07-20T01:03:57;97000.22;;;26.95;50.18
10464;BME280;5279;42.048;24.638;2023-07-20T01:06:34;97001.03;;;26.96;50.32
10464;BME280;5279;42.048;24.638;2023-07-20T01:09:09;96993.13;;;26.94;50.33
10464;BME280;5279;42.048;24.638;2023-07-20T01:11:44;96999.31;;;26.85;50.93
10464;BME280;5279;42.048;24.638;2023-07-20T01:14:13;97004.16;;;26.78;51.16
10464;BME280;5279;42.048;24.638;2023-07-20T01:16:40;96994.03;;;26.68;51.09
10464;BME280;5279;42.048;24.638;2023-07-20T01:19:07;96983.63;;;26.60;51.97
10464;BME280;5279;42.048;24.638;2023-07-20T01:21:38;96989.41;;;26.32;52.75
10464;BME280;5279;42.048;24.638;2023-07-20T01:24:55;96981.31;;;26.10;53.44
10464;BME280;5279;42.048;24.638;2023-07-20T01:28:22;96972.22;;;25.99;53.69
10464;BME280;5279;42.048;24.638;2023-07-20T01:30:51;96963.06;;;26.05;53.63
10464;BME280;5279;42.048;24.638;2023-07-20T01:33:24;96957.06;;;26.03;54.93
10464;BME280;5279;42.048;24.638;2023-07-20T01:35:54;96950.00;;;26.02;54.57
10464;BME280;5279;42.048;24.638;2023-07-20T01:38:21;96940.13;;;25.91;55.22
10464;BME280;5279;42.048;24.638;2023-07-20T01:40:50;96950.03;;;25.76;55.70
10464;BME280;5279;42.048;24.638;2023-07-20T01:43:18;96950.19;;;25.64;55.90
10464;BME280;5279;42.048;24.638;2023-07-20T01:45:45;96953.41;;;25.61;56.21
10464;BME280;5279;42.048;24.638;2023-07-20T01:48:12;96939.84;;;25.61;56.27
10464;BME280;5279;42.048;24.638;2023-07-20T01:50:40;96936.34;;;25.66;56.52
10464;BME280;5279;42.048;24.638;2023-07-20T01:53:07;96929.63;;;25.68;55.94
10464;BME280;5279;42.048;24.638;2023-07-20T01:55:33;96933.38;;;25.67;55.67
10464;BME280;5279;42.048;24.638;2023-07-20T01:58:00;96937.28;;;25.76;55.55
10464;BME280;5279;42.048;24.638;2023-07-20T02:00:28;96935.63;;;25.75;54.81
10464;BME280;5279;42.048;24.638;2023-07-20T02:02:55;96934.00;;;25.74;54.70
10464;BME280;5279;42.048;24.638;2023-07-20T02:05:22;96943.84;;;25.80;54.33
10464;BME280;5279;42.048;24.638;2023-07-20T02:07:51;96941.16;;;25.85;54.31
10464;BME280;5279;42.048;24.638;2023-07-20T02:10:18;96954.53;;;25.92;54.91
10464;BME280;5279;42.048;24.638;2023-07-20T02:12:45;96962.41;;;25.93;54.90
10464;BME280;5279;42.048;24.638;2023-07-20T02:15:11;96958.66;;;25.99;55.29
10464;BME280;5279;42.048;24.638;2023-07-20T02:17:40;96966.06;;;26.04;54.83
10464;BME280;5279;42.048;24.638;2023-07-20T02:20:07;96962.00;;;26.06;53.96
10464;BME280;5279;42.048;24.638;2023-07-20T02:22:35;96970.69;;;26.08;54.93
10464;BME280;5279;42.048;24.638;2023-07-20T02:25:05;96971.38;;;25.94;55.04
10464;BME280;5279;42.048;24.638;2023-07-20T02:27:32;96968.94;;;25.92;55.13
10464;BME280;5279;42.048;24.638;2023-07-20T02:29:59;96972.91;;;25.85;55.35
10464;BME280;5279;42.048;24.638;2023-07-20T02:32:27;96970.47;;;25.83;55.87
10464;BME280;5279;42.048;24.638;2023-07-20T02:34:54;96978.63;;;25.83;55.72
10464;BME280;5279;42.048;24.638;2023-07-20T02:37:20;96972.44;;;25.66;55.50
10464;BME280;5279;42.048;24.638;2023-07-20T02:39:47;96980.34;;;25.46;55.99
10464;BME280;5279;42.048;24.638;2023-07-20T02:42:16;96975.47;;;25.48;56.73
10464;BME280;5279;42.048;24.638;2023-07-20T02:44:43;96978.19;;;25.48;56.68
10464;BME280;5279;42.048;24.638;2023-07-20T02:47:09;96966.31;;;25.49;56.49
10464;BME280;5279;42.048;24.638;2023-07-20T02:49:36;96969.88;;;25.33;57.56
10464;BME280;5279;42.048;24.638;2023-07-20T02:52:04;96975.19;;;25.23;57.79
10464;BME280;5279;42.048;24.638;2023-07-20T02:54:31;96966.16;;;25.17;57.45
10464;BME280;5279;42.048;24.638;2023-07-20T02:56:58;96960.44;;;25.14;58.21
10464;BME280;5279;42.048;24.638;2023-07-20T02:59:26;96959.16;;;25.21;57.68
10464;BME280;5279;42.048;24.638;2023-07-20T03:01:53;96960.13;;;25.10;59.60
10464;BME280;5279;42.048;24.638;2023-07-20T03:04:21;96960.13;;;25.10;60.74
10464;BME280;5279;42.048;24.638;2023-07-20T03:06:48;96961.94;;;25.05;58.53
10464;BME280;5279;42.048;24.638;2023-07-20T03:09:15;96970.50;;;24.96;59.30
10464;BME280;5279;42.048;24.638;2023-07-20T03:11:42;96964.47;;;24.89;59.56
10464;BME280;5279;42.048;24.638;2023-07-20T03:14:08;96968.88;;;24.79;60.77
10464;BME280;5279;42.048;24.638;2023-07-20T03:16:37;96964.13;;;24.69;61.65
10464;BME280;5279;42.048;24.638;2023-07-20T03:19:04;96975.34;;;24.56;62.22
10464;BME280;5279;42.048;24.638;2023-07-20T03:21:31;96963.34;;;24.52;62.44
10464;BME280;5279;42.048;24.638;2023-07-20T03:23:58;96956.28;;;24.51;62.92
10464;BME280;5279;42.048;24.638;2023-07-20T03:26:25;96959.81;;;24.52;62.18
10464;BME280;5279;42.048;24.638;2023-07-20T03:28:51;96965.44;;;24.50;62.47
10464;BME280;5279;42.048;24.638;2023-07-20T03:31:18;96960.53;;;24.47;62.91
10464;BME280;5279;42.048;24.638;2023-07-20T03:33:46;96954.56;;;24.45;63.48
10464;BME280;5279;42.048;24.638;2023-07-20T03:36:13;96949.19;;;24.50;64.95
10464;BME280;5279;42.048;24.638;2023-07-20T03:38:40;96945.38;;;24.46;64.75
10464;BME280;5279;42.048;24.638;2023-07-20T03:41:07;96943.78;;;24.50;64.85
10464;BME280;5279;42.048;24.638;2023-07-20T03:43:34;96930.41;;;24.60;63.82
10464;BME280;5279;42.048;24.638;2023-07-20T03:46:01;96943.28;;;24.70;63.09
10464;BME280;5279;42.048;24.638;2023-07-20T03:48:32;96936.72;;;24.82;62.31
10464;BME280;5279;42.048;24.638;2023-07-20T03:51:00;96938.09;;;24.85;62.63
10464;BME280;5279;42.048;24.638;2023-07-20T03:53:27;96937.84;;;24.86;61.78
10464;BME280;5279;42.048;24.638;2023-07-20T03:55:54;96933.00;;;24.88;61.50
10464;BME280;5279;42.048;24.638;2023-07-20T03:58:21;96927.63;;;24.93;61.79
10464;BME280;5279;42.048;24.638;2023-07-20T04:00:49;96927.94;;;24.97;62.64
10464;BME280;5279;42.048;24.638;2023-07-20T04:03:17;96929.66;;;25.03;62.67
10464;BME280;5279;42.048;24.638;2023-07-20T04:05:44;96930.03;;;25.12;62.56
10464;BME280;5279;42.048;24.638;2023-07-20T04:08:12;96935.63;;;25.27;62.51
10464;BME280;5279;42.048;24.638;2023-07-20T04:10:42;96937.13;;;25.39;61.92
10464;BME280;5279;42.048;24.638;2023-07-20T04:13:09;96935.28;;;25.45;61.33
10464;BME280;5279;42.048;24.638;2023-07-20T04:15:36;96944.63;;;25.54;61.61
10464;BME280;5279;42.048;24.638;2023-07-20T04:18:03;96941.50;;;25.62;60.45
10464;BME280;5279;42.048;24.638;2023-07-20T04:20:30;96943.53;;;25.77;60.08
10464;BME280;5279;42.048;24.638;2023-07-20T04:22:57;96945.00;;;25.89;58.36
10464;BME280;5279;42.048;24.638;2023-07-20T04:25:25;96951.41;;;26.05;57.44
10464;BME280;5279;42.048;24.638;2023-07-20T04:27:52;96945.72;;;26.12;57.99
10464;BME280;5279;42.048;24.638;2023-07-20T04:30:19;96938.78;;;26.21;57.93
10464;BME280;5279;42.048;24.638;2023-07-20T04:32:47;96947.28;;;26.29;58.13
10464;BME280;5279;42.048;24.638;2023-07-20T04:35:18;96949.84;;;26.46;57.10
10464;BME280;5279;42.048;24.638;2023-07-20T04:37:45;96949.94;;;26.61;57.16
10464;BME280;5279;42.048;24.638;2023-07-20T04:40:12;96946.50;;;26.76;57.87
10464;BME280;5279;42.048;24.638;2023-07-20T04:42:41;96948.28;;;26.97;58.04
10464;BME280;5279;42.048;24.638;2023-07-20T04:45:08;96949.75;;;27.14;58.14
10464;BME280;5279;42.048;24.638;2023-07-20T04:47:35;96951.16;;;27.32;54.71
10464;BME280;5279;42.048;24.638;2023-07-20T04:50:03;96947.91;;;27.40;53.98
10464;BME280;5279;42.048;24.638;2023-07-20T04:52:30;96946.34;;;27.49;54.66
10464;BME280;5279;42.048;24.638;2023-07-20T04:54:57;96947.22;;;27.60;54.20
10464;BME280;5279;42.048;24.638;2023-07-20T04:57:23;96945.31;;;27.71;53.29
10464;BME280;5279;42.048;24.638;2023-07-20T04:59:52;96953.75;;;27.79;52.74
10464;BME280;5279;42.048;24.638;2023-07-20T05:02:19;96946.69;;;27.88;52.71
10464;BME280;5279;42.048;24.638;2023-07-20T05:04:46;96946.72;;;27.98;52.18
10464;BME280;5279;42.048;24.638;2023-07-20T05:07:12;96954.94;;;28.18;52.01
10464;BME280;5279;42.048;24.638;2023-07-20T05:09:39;96957.09;;;28.37;51.64
10464;BME280;5279;42.048;24.638;2023-07-20T05:12:07;96953.25;;;28.58;50.87
10464;BME280;5279;42.048;24.638;2023-07-20T05:14:33;96947.59;;;28.69;50.49
10464;BME280;5279;42.048;24.638;2023-07-20T05:17:02;96953.25;;;28.83;51.01
10464;BME280;5279;42.048;24.638;2023-07-20T05:19:29;96949.41;;;28.99;51.71
10464;BME280;5279;42.048;24.638;2023-07-20T05:21:56;96947.97;;;29.17;50.72
10464;BME280;5279;42.048;24.638;2023-07-20T05:24:22;96944.13;;;29.23;51.11
10464;BME280;5279;42.048;24.638;2023-07-20T05:26:49;96946.59;;;29.24;51.40
10464;BME280;5279;42.048;24.638;2023-07-20T05:29:16;96942.78;;;29.25;51.16
10464;BME280;5279;42.048;24.638;2023-07-20T05:31:43;96941.94;;;29.35;51.68
10464;BME280;5279;42.048;24.638;2023-07-20T05:34:11;96932.31;;;29.43;50.55
10464;BME280;5279;42.048;24.638;2023-07-20T05:36:38;96935.03;;;29.48;50.18
10464;BME280;5279;42.048;24.638;2023-07-20T05:39:05;96928.47;;;29.54;48.82
10464;BME280;5279;42.048;24.638;2023-07-20T05:41:32;96932.78;;;29.60;48.71
10464;BME280;5279;42.048;24.638;2023-07-20T05:43:59;96932.03;;;29.49;50.20
10464;BME280;5279;42.048;24.638;2023-07-20T05:46:25;96927.06;;;29.56;50.21
10464;BME280;5279;42.048;24.638;2023-07-20T05:48:52;96926.78;;;29.63;50.04
10464;BME280;5279;42.048;24.638;2023-07-20T05:51:20;96927.34;;;29.60;49.91
10464;BME280;5279;42.048;24.638;2023-07-20T05:53:47;96931.06;;;29.74;49.20
10464;BME280;5279;42.048;24.638;2023-07-20T05:56:14;96929.97;;;29.75;49.46
10464;BME280;5279;42.048;24.638;2023-07-20T05:58:41;96917.38;;;29.84;48.52
10464;BME280;5279;42.048;24.638;2023-07-20T06:01:08;96915.94;;;29.92;48.34
10464;BME280;5279;42.048;24.638;2023-07-20T06:03:35;96914.28;;;29.96;48.25
10464;BME280;5279;42.048;24.638;2023-07-20T06:06:03;96920.25;;;30.03;46.99
10464;BME280;5279;42.048;24.638;2023-07-20T06:08:32;96914.47;;;30.09;47.64
10464;BME280;5279;42.048;24.638;2023-07-20T06:10:59;96905.59;;;30.22;47.29
10464;BME280;5279;42.048;24.638;2023-07-20T06:13:26;96912.31;;;30.35;46.87
10464;BME280;5279;42.048;24.638;2023-07-20T06:15:53;96910.09;;;30.42;45.11
10464;BME280;5279;42.048;24.638;2023-07-20T06:18:21;96902.59;;;30.53;45.32
10464;BME280;5279;42.048;24.638;2023-07-20T06:20:49;96906.09;;;30.58;45.35
10464;BME280;5279;42.048;24.638;2023-07-20T06:23:17;96904.91;;;30.69;45.64
10464;BME280;5279;42.048;24.638;2023-07-20T06:25:45;96896.94;;;30.73;45.36
10464;BME280;5279;42.048;24.638;2023-07-20T06:28:12;96895.22;;;30.77;44.57
10464;BME280;5279;42.048;24.638;2023-07-20T06:30:39;96893.44;;;30.91;44.03
10464;BME280;5279;42.048;24.638;2023-07-20T06:33:06;96900.69;;;31.06;43.87
10464;BME280;5279;42.048;24.638;2023-07-20T06:35:34;96892.25;;;31.02;44.46
10464;BME280;5279;42.048;24.638;2023-07-20T06:38:01;96905.22;;;31.15;43.35
10464;BME280;5279;42.048;24.638;2023-07-20T06:40:29;96901.75;;;31.10;43.64
10464;BME280;5279;42.048;24.638;2023-07-20T06:42:57;96896.00;;;31.30;43.32
10464;BME280;5279;42.048;24.638;2023-07-20T06:45:24;96897.72;;;31.45;43.72
10464;BME280;5279;42.048;24.638;2023-07-20T06:47:51;96895.84;;;31.64;43.58
10464;BME280;5279;42.048;24.638;2023-07-20T06:50:18;96899.75;;;31.76;42.76
10464;BME280;5279;42.048;24.638;2023-07-20T06:52:45;96894.94;;;31.87;41.92
10464;BME280;5279;42.048;24.638;2023-07-20T06:55:13;96893.31;;;32.05;42.32
10464;BME280;5279;42.048;24.638;2023-07-20T06:57:40;96893.53;;;32.08;42.45
10464;BME280;5279;42.048;24.638;2023-07-20T07:00:09;96896.25;;;32.08;42.09
10464;BME280;5279;42.048;24.638;2023-07-20T07:02:36;96900.22;;;32.34;42.50
10464;BME280;5279;42.048;24.638;2023-07-20T07:05:04;96904.09;;;32.47;42.76
10464;BME280;5279;42.048;24.638;2023-07-20T07:07:31;96906.41;;;32.59;42.36
10464;BME280;5279;42.048;24.638;2023-07-20T07:09:59;96897.91;;;32.74;41.31
10464;BME280;5279;42.048;24.638;2023-07-20T07:12:26;96905.59;;;32.72;41.13
10464;BME280;5279;42.048;24.638;2023-07-20T07:14:53;96910.69;;;32.78;40.99
10464;BME280;5279;42.048;24.638;2023-07-20T07:17:21;96902.97;;;32.94;40.12
10464;BME280;5279;42.048;24.638;2023-07-20T07:19:48;96898.38;;;32.89;40.00
10464;BME280;5279;42.048;24.638;2023-07-20T07:22:15;96889.56;;;33.06;40.46
10464;BME280;5279;42.048;24.638;2023-07-20T07:24:41;96890.38;;;33.20;40.14
10464;BME280;5279;42.048;24.638;2023-07-20T07:27:08;96887.63;;;33.20;39.18
10464;BME280;5279;42.048;24.638;2023-07-20T07:29:35;96898.53;;;33.25;38.30
10464;BME280;5279;42.048;24.638;2023-07-20T07:32:03;96888.53;;;33.29;37.81
10464;BME280;5279;42.048;24.638;2023-07-20T07:34:31;96894.94;;;33.38;38.04
10464;BME280;5279;42.048;24.638;2023-07-20T07:37:00;96885.88;;;33.51;38.04
10464;BME280;5279;42.048;24.638;2023-07-20T07:39:26;96880.56;;;33.55;36.82
10464;BME280;5279;42.048;24.638;2023-07-20T07:41:55;96875.69;;;33.66;38.50
10464;BME280;5279;42.048;24.638;2023-07-20T07:44:22;96878.63;;;33.69;38.24
10464;BME280;5279;42.048;24.638;2023-07-20T07:46:49;96874.06;;;33.87;37.60
10464;BME280;5279;42.048;24.638;2023-07-20T07:49:16;96879.81;;;33.99;37.20
10464;BME280;5279;42.048;24.638;2023-07-20T07:51:45;96877.69;;;34.10;37.99
10464;BME280;5279;42.048;24.638;2023-07-20T07:54:12;96889.84;;;34.17;36.73
10464;BME280;5279;42.048;24.638;2023-07-20T07:56:39;96886.53;;;34.06;37.28
10464;BME280;5279;42.048;24.638;2023-07-20T07:59:06;96888.75;;;34.18;37.23
10464;BME280;5279;42.048;24.638;2023-07-20T08:01:33;96894.97;;;34.32;37.98
10464;BME280;5279;42.048;24.638;2023-07-20T08:04:01;96884.72;;;34.46;36.85
10464;BME280;5279;42.048;24.638;2023-07-20T08:06:29;96882.47;;;34.48;36.84
10464;BME280;5279;42.048;24.638;2023-07-20T08:08:58;96884.09;;;34.49;36.47
10464;BME280;5279;42.048;24.638;2023-07-20T08:11:25;96883.84;;;34.59;36.61
10464;BME280;5279;42.048;24.638;2023-07-20T08:13:52;96879.06;;;34.74;35.75
10464;BME280;5279;42.048;24.638;2023-07-20T08:16:18;96886.81;;;34.72;36.55
10464;BME280;5279;42.048;24.638;2023-07-20T08:18:45;96888.19;;;34.83;36.26
10464;BME280;5279;42.048;24.638;2023-07-20T08:21:12;96889.78;;;34.84;34.91
10464;BME280;5279;42.048;24.638;2023-07-20T08:23:39;96894.25;;;35.02;35.21
10464;BME280;5279;42.048;24.638;2023-07-20T08:26:07;96895.72;;;35.08;35.47
10464;BME280;5279;42.048;24.638;2023-07-20T08:28:34;96897.72;;;35.16;34.97
10464;BME280;5279;42.048;24.638;2023-07-20T08:31:01;96897.94;;;35.28;34.69
10464;BME280;5279;42.048;24.638;2023-07-20T08:33:28;96897.94;;;35.28;34.62
10464;BME280;5279;42.048;24.638;2023-07-20T08:35:59;96904.09;;;35.42;35.71
10464;BME280;5279;42.048;24.638;2023-07-20T08:38:26;96911.72;;;35.45;34.12
10464;BME280;5279;42.048;24.638;2023-07-20T08:40:53;96901.66;;;35.32;34.61
10464;BME280;5279;42.048;24.638;2023-07-20T08:43:23;96900.41;;;35.47;34.86
10464;BME280;5279;42.048;24.638;2023-07-20T08:45:52;96904.94;;;35.51;33.43
10464;BME280;5279;42.048;24.638;2023-07-20T08:48:20;96899.41;;;35.34;33.25
10464;BME280;5279;42.048;24.638;2023-07-20T08:50:49;96904.44;;;35.41;33.37
10464;BME280;5279;42.048;24.638;2023-07-20T08:53:17;96901.69;;;35.49;34.81
10464;BME280;5279;42.048;24.638;2023-07-20T08:55:45;96897.53;;;35.60;34.59
10464;BME280;5279;42.048;24.638;2023-07-20T08:58:13;96891.41;;;35.81;33.48
10464;BME280;5279;42.048;24.638;2023-07-20T09:00:42;96892.19;;;35.73;32.60
10464;BME280;5279;42.048;24.638;2023-07-20T09:03:10;96887.81;;;35.89;33.05
10464;BME280;5279;42.048;24.638;2023-07-20T09:05:37;96879.03;;;36.04;32.29
10464;BME280;5279;42.048;24.638;2023-07-20T09:08:05;96877.13;;;36.13;32.55
10464;BME280;5279;42.048;24.638;2023-07-20T09:10:32;96866.72;;;36.27;32.71
10464;BME280;5279;42.048;24.638;2023-07-20T09:12:59;96858.06;;;36.46;32.49
10464;BME280;5279;42.048;24.638;2023-07-20T09:15:26;96846.22;;;36.45;31.60
10464;BME280;5279;42.048;24.638;2023-07-20T09:17:54;96850.28;;;36.56;32.32
10464;BME280;5279;42.048;24.638;2023-07-20T09:20:21;96862.78;;;36.62;31.10
10464;BME280;5279;42.048;24.638;2023-07-20T09:22:48;96856.94;;;36.55;32.09
10464;BME280;5279;42.048;24.638;2023-07-20T09:25:18;96848.41;;;36.78;31.27
10464;BME280;5279;42.048;24.638;2023-07-20T09:27:47;96844.94;;;36.89;31.37
10464;BME280;5279;42.048;24.638;2023-07-20T09:30:15;96831.69;;;37.12;32.60
10464;BME280;5279;42.048;24.638;2023-07-20T09:32:43;96835.50;;;37.28;31.86
10464;BME280;5279;42.048;24.638;2023-07-20T09:35:15;96831.19;;;37.39;30.19
10464;BME280;5279;42.048;24.638;2023-07-20T09:37:46;96829.22;;;37.48;30.39
10464;BME280;5279;42.048;24.638;2023-07-20T09:40:17;96825.88;;;37.55;31.17
10464;BME280;5279;42.048;24.638;2023-07-20T09:42:44;96829.47;;;37.76;30.93
10464;BME280;5279;42.048;24.638;2023-07-20T09:45:11;96821.97;;;37.97;29.58
10464;BME280;5279;42.048;24.638;2023-07-20T09:47:39;96825.78;;;38.25;29.86
10464;BME280;5279;42.048;24.638;2023-07-20T09:50:07;96829.78;;;38.49;29.12
10464;BME280;5279;42.048;24.638;2023-07-20T09:52:39;96829.94;;;38.32;28.55
10464;BME280;5279;42.048;24.638;2023-07-20T09:55:07;96817.81;;;38.24;29.14
10464;BME280;5279;42.048;24.638;2023-07-20T09:57:35;96809.81;;;38.43;28.58
10464;BME280;5279;42.048;24.638;2023-07-20T10:00:03;96813.97;;;38.49;28.13
10464;BME280;5279;42.048;24.638;2023-07-20T10:02:41;96804.78;;;38.57;28.32
10464;BME280;5279;42.048;24.638;2023-07-20T10:05:11;96802.34;;;38.56;27.82
10464;BME280;5279;42.048;24.638;2023-07-20T10:07:43;96795.41;;;38.62;28.79
10464;BME280;5279;42.048;24.638;2023-07-20T10:10:11;96790.25;;;38.72;28.37
10464;BME280;5279;42.048;24.638;2023-07-20T10:12:41;96790.94;;;38.69;29.19
10464;BME280;5279;42.048;24.638;2023-07-20T10:15:11;96788.19;;;38.82;28.30
10464;BME280;5279;42.048;24.638;2023-07-20T10:17:58;96779.41;;;38.92;28.35
10464;BME280;5279;42.048;24.638;2023-07-20T10:20:27;96767.97;;;38.93;27.45
10464;BME280;5279;42.048;24.638;2023-07-20T10:22:56;96761.84;;;39.12;28.02
10464;BME280;5279;42.048;24.638;2023-07-20T10:25:23;96762.28;;;39.14;27.21
10464;BME280;5279;42.048;24.638;2023-07-20T10:27:50;96762.63;;;39.37;26.97
10464;BME280;5279;42.048;24.638;2023-07-20T10:30:18;96750.19;;;39.30;26.90
10464;BME280;5279;42.048;24.638;2023-07-20T10:32:46;96763.63;;;39.44;27.04
10464;BME280;5279;42.048;24.638;2023-07-20T10:35:14;96756.78;;;39.66;27.27
10464;BME280;5279;42.048;24.638;2023-07-20T10:37:53;96753.47;;;39.48;26.50
10464;BME280;5279;42.048;24.638;2023-07-20T10:40:29;96746.59;;;39.70;27.17
10464;BME280;5279;42.048;24.638;2023-07-20T10:43:01;96750.56;;;39.84;26.49
10464;BME280;5279;42.048;24.638;2023-07-20T10:45:42;96754.94;;;39.85;26.51
10464;BME280;5279;42.048;24.638;2023-07-20T10:48:16;96757.47;;;39.91;26.77
10464;BME280;5279;42.048;24.638;2023-07-20T10:50:45;96759.78;;;39.88;26.39
10464;BME280;5279;42.048;24.638;2023-07-20T10:53:16;96752.72;;;39.63;26.02
10464;BME280;5279;42.048;24.638;2023-07-20T10:55:44;96755.22;;;39.80;26.13
10464;BME280;5279;42.048;24.638;2023-07-20T10:58:16;96737.84;;;39.83;26.06
10464;BME280;5279;42.048;24.638;2023-07-20T11:00:56;96738.38;;;39.61;26.14
10464;BME280;5279;42.048;24.638;2023-07-20T11:03:31;96744.28;;;39.72;26.16
10464;BME280;5279;42.048;24.638;2023-07-20T11:05:58;96747.25;;;39.79;26.24
10464;BME280;5279;42.048;24.638;2023-07-20T11:08:38;96750.81;;;39.79;25.16
10464;BME280;5279;42.048;24.638;2023-07-20T11:11:24;96753.44;;;39.60;24.78
10464;BME280;5279;42.048;24.638;2023-07-20T11:13:56;96746.69;;;39.61;24.99
10464;BME280;5279;42.048;24.638;2023-07-20T11:16:41;96743.47;;;39.71;25.01
10464;BME280;5279;42.048;24.638;2023-07-20T11:19:16;96738.84;;;39.63;24.59
10464;BME280;5279;42.048;24.638;2023-07-20T11:21:45;96737.16;;;39.47;25.06
10464;BME280;5279;42.048;24.638;2023-07-20T11:24:12;96741.13;;;39.73;25.60
10464;BME280;5279;42.048;24.638;2023-07-20T11:26:42;96734.63;;;39.81;25.25
10464;BME280;5279;42.048;24.638;2023-07-20T11:29:09;96726.31;;;40.09;25.24
10464;BME280;5279;42.048;24.638;2023-07-20T11:31:37;96723.41;;;40.06;25.09
10464;BME280;5279;42.048;24.638;2023-07-20T11:34:04;96711.38;;;40.02;23.72
10464;BME280;5279;42.048;24.638;2023-07-20T11:36:31;96720.78;;;39.97;24.60
10464;BME280;5279;42.048;24.638;2023-07-20T11:38:59;96712.47;;;39.97;24.32
10464;BME280;5279;42.048;24.638;2023-07-20T11:41:25;96701.59;;;39.92;24.46
10464;BME280;5279;42.048;24.638;2023-07-20T11:43:54;96718.72;;;40.22;25.40
10464;BME280;5279;42.048;24.638;2023-07-20T11:46:21;96720.69;;;40.37;23.74
10464;BME280;5279;42.048;24.638;2023-07-20T11:48:48;96716.91;;;40.45;23.61
10464;BME280;5279;42.048;24.638;2023-07-20T11:51:16;96727.47;;;40.24;24.49
10464;BME280;5279;42.048;24.638;2023-07-20T11:53:44;96731.47;;;40.11;23.73
10464;BME280;5279;42.048;24.638;2023-07-20T11:56:12;96730.88;;;40.33;23.82
10464;BME280;5279;42.048;24.638;2023-07-20T11:58:42;96712.44;;;40.25;24.44
10464;BME280;5279;42.048;24.638;2023-07-20T12:01:11;96711.72;;;40.28;23.72
10464;BME280;5279;42.048;24.638;2023-07-20T12:03:38;96709.66;;;40.56;24.15
10464;BME280;5279;42.048;24.638;2023-07-20T12:06:09;96704.97;;;40.76;23.66
10464;BME280;5279;42.048;24.638;2023-07-20T12:08:38;96718.00;;;40.56;22.99
10464;BME280;5279;42.048;24.638;2023-07-20T12:11:06;96709.06;;;40.04;23.50
10464;BME280;5279;42.048;24.638;2023-07-20T12:13:37;96707.25;;;39.96;24.09
10464;BME280;5279;42.048;24.638;2023-07-20T12:16:13;96687.47;;;39.81;24.24
10464;BME280;5279;42.048;24.638;2023-07-20T12:18:40;96661.88;;;40.04;24.59
10464;BME280;5279;42.048;24.638;2023-07-20T12:21:07;96647.88;;;40.12;25.07
10464;BME280;5279;42.048;24.638;2023-07-20T12:23:36;96655.09;;;40.17;24.91
10464;BME280;5279;42.048;24.638;2023-07-20T12:26:06;96667.84;;;40.18;24.51
10464;BME280;5279;42.048;24.638;2023-07-20T12:28:33;96670.03;;;39.97;24.78
10464;BME280;5279;42.048;24.638;2023-07-20T12:31:02;96657.69;;;39.94;25.56
10464;BME280;5279;42.048;24.638;2023-07-20T12:33:30;96653.16;;;39.74;25.11
10464;BME280;5279;42.048;24.638;2023-07-20T12:35:57;96647.63;;;39.46;25.60
10464;BME280;5279;42.048;24.638;2023-07-20T12:38:24;96641.66;;;39.60;25.46
10464;BME280;5279;42.048;24.638;2023-07-20T12:40:52;96637.94;;;39.40;25.17
10464;BME280;5279;42.048;24.638;2023-07-20T12:43:20;96637.44;;;39.50;25.57
10464;BME280;5279;42.048;24.638;2023-07-20T12:45:47;96636.22;;;39.63;25.79
10464;BME280;5279;42.048;24.638;2023-07-20T12:48:14;96639.72;;;39.60;25.39
10464;BME280;5279;42.048;24.638;2023-07-20T12:50:42;96657.50;;;39.59;25.45
10464;BME280;5279;42.048;24.638;2023-07-20T12:53:09;96644.72;;;39.27;25.40
10464;BME280;5279;42.048;24.638;2023-07-20T12:55:36;96641.09;;;39.39;26.42
10464;BME280;5279;42.048;24.638;2023-07-20T12:58:03;96649.56;;;39.30;25.63
10464;BME280;5279;42.048;24.638;2023-07-20T13:00:30;96644.25;;;39.25;25.68
10464;BME280;5279;42.048;24.638;2023-07-20T13:02:57;96630.38;;;39.25;25.10
10464;BME280;5279;42.048;24.638;2023-07-20T13:05:24;96642.00;;;39.43;25.33